createdAt,value
2022-12-14T00:01:55.163Z,18.60
2022-12-14T00:04:24.588Z,18.27
2022-12-14T00:06:52.671Z,18.00
2022-12-14T00:09:20.825Z,19.05
2022-12-14T00:11:48.984Z,18.05
2022-12-14T00:14:17.060Z,18.48
2022-12-14T00:16:45.074Z,19.45
2022-12-14T00:19:13.475Z,18.00
2022-12-14T00:21:43.040Z,20.45
2022-12-14T00:24:12.604Z,18.17
2022-12-14T00:26:40.708Z,18.65
2022-12-14T00:29:08.842Z,18.40
2022-12-14T00:31:37.078Z,19.38
2022-12-14T00:34:05.275Z,21.63
2022-12-14T00:36:33.433Z,18.77
2022-12-14T00:39:02.996Z,21.00
2022-12-14T00:41:31.122Z,17.63
2022-12-14T00:43:59.299Z,21.10
2022-12-14T00:46:27.472Z,19.10
2022-12-14T00:48:56.023Z,18.85
2022-12-14T00:51:24.097Z,17.42
2022-12-14T00:53:52.123Z,19.00
2022-12-14T00:56:21.652Z,20.55
2022-12-14T00:58:52.788Z,19.55
2022-12-14T01:01:22.339Z,19.75
2022-12-14T01:03:50.791Z,18.45
2022-12-14T01:06:20.969Z,20.08
2022-12-14T01:08:49.796Z,15.60
2022-12-14T01:11:18.637Z,18.92
2022-12-14T01:13:49.461Z,18.60
2022-12-14T01:16:23.469Z,16.20
2022-12-14T01:18:51.660Z,18.70
2022-12-14T01:21:22.495Z,20.00
2022-12-14T01:23:54.101Z,17.58
2022-12-14T01:26:23.340Z,18.23
2022-12-14T01:28:56.258Z,18.05
2022-12-14T01:31:26.795Z,17.80
2022-12-14T01:33:55.482Z,16.45
2022-12-14T01:36:25.675Z,19.50
2022-12-14T01:38:55.204Z,18.30
2022-12-14T01:41:27.209Z,18.67
2022-12-14T01:43:58.714Z,18.58
2022-12-14T01:46:31.291Z,19.35
2022-12-14T01:49:03.864Z,19.50
2022-12-14T01:51:33.709Z,17.90
2022-12-14T01:54:03.351Z,19.02
2022-12-14T01:56:33.697Z,17.38
2022-12-14T01:59:07.393Z,19.35
2022-12-14T02:01:38.976Z,21.58
2022-12-14T02:04:08.104Z,18.13
2022-12-14T02:06:38.989Z,18.67
2022-12-14T02:09:11.162Z,17.25
2022-12-14T02:11:51.062Z,18.50
2022-12-14T02:14:20.576Z,20.83
2022-12-14T02:16:51.517Z,18.92
2022-12-14T02:19:19.743Z,17.63
2022-12-14T02:22:08.025Z,17.25
2022-12-14T02:25:01.690Z,17.95
2022-12-14T02:27:50.741Z,19.58
2022-12-14T02:30:21.857Z,17.38
2022-12-14T02:33:11.772Z,18.27
2022-12-14T02:35:45.925Z,19.50
2022-12-14T02:38:28.863Z,18.98
2022-12-14T02:41:07.320Z,19.25
2022-12-14T02:43:47.469Z,17.90
2022-12-14T02:46:23.699Z,19.85
2022-12-14T02:48:59.850Z,19.75
2022-12-14T02:51:39.854Z,18.58
2022-12-14T02:54:14.858Z,17.15
2022-12-14T02:56:49.469Z,17.50
2022-12-14T02:59:19.594Z,18.83
2022-12-14T03:01:52.429Z,18.40
2022-12-14T03:04:20.897Z,19.27
2022-12-14T03:06:57.977Z,16.23
2022-12-14T03:09:29.264Z,18.65
2022-12-14T03:12:02.827Z,20.25
2022-12-14T03:14:35.633Z,19.92
2022-12-14T03:17:15.259Z,21.77
2022-12-14T03:19:51.909Z,19.88
2022-12-14T03:22:24.407Z,19.23
2022-12-14T03:24:56.671Z,21.52
2022-12-14T03:27:31.350Z,18.60
2022-12-14T03:30:01.456Z,19.05
2022-12-14T03:32:33.833Z,20.83
2022-12-14T03:35:05.907Z,16.92
2022-12-14T03:37:39.241Z,20.35
2022-12-14T03:42:43.402Z,20.85
2022-12-14T03:45:21.191Z,17.48
2022-12-14T03:48:07.907Z,18.63
2022-12-14T03:50:42.350Z,17.65
2022-12-14T03:53:15.569Z,19.40
2022-12-14T03:55:54.709Z,19.92
2022-12-14T03:58:34.397Z,19.88
2022-12-14T04:01:09.573Z,18.52
2022-12-14T04:03:49.060Z,18.95
2022-12-14T04:06:26.688Z,17.98
2022-12-14T04:09:03.574Z,19.88
2022-12-14T04:11:53.595Z,21.15
2022-12-14T04:14:44.603Z,19.63
2022-12-14T04:17:35.543Z,18.80
2022-12-14T04:20:10.696Z,19.88
2022-12-14T04:22:44.654Z,18.40
2022-12-14T04:25:33.536Z,20.92
2022-12-14T04:28:08.365Z,18.48
2022-12-14T04:30:39.477Z,19.90
2022-12-14T04:33:26.304Z,17.90
2022-12-14T04:35:59.231Z,19.85
2022-12-14T04:38:34.251Z,20.27
2022-12-14T04:41:08.266Z,18.27
2022-12-14T04:43:46.273Z,18.38
2022-12-14T04:46:21.916Z,19.52
2022-12-14T04:48:55.600Z,18.38
2022-12-14T04:51:32.010Z,20.52
2022-12-14T04:54:07.854Z,17.85
2022-12-14T04:56:45.461Z,17.98
2022-12-14T04:59:14.066Z,16.83
2022-12-14T05:01:51.204Z,18.02
2022-12-14T05:04:29.696Z,18.65
2022-12-14T05:07:07.816Z,19.67
2022-12-14T05:09:41.886Z,20.30
2022-12-14T05:12:17.366Z,18.63
2022-12-14T05:14:51.368Z,18.10
2022-12-14T05:17:20.086Z,19.77
2022-12-14T05:19:49.938Z,18.05
2022-12-14T05:22:20.717Z,16.92
2022-12-14T05:24:48.845Z,20.40
2022-12-14T05:27:16.923Z,18.55
2022-12-14T05:29:45.066Z,17.02
2022-12-14T05:32:13.813Z,18.10
2022-12-14T05:34:41.926Z,17.98
2022-12-14T05:37:17.762Z,19.88
2022-12-14T05:39:48.781Z,16.50
2022-12-14T05:42:16.915Z,17.73
2022-12-14T05:44:48.637Z,17.25
2022-12-14T05:47:19.348Z,18.08
2022-12-14T05:49:49.471Z,16.95
2022-12-14T05:52:18.041Z,16.55
2022-12-14T05:54:46.179Z,17.30
2022-12-14T05:57:15.660Z,16.45
2022-12-14T05:59:43.818Z,16.63
2022-12-14T06:02:12.098Z,16.65
2022-12-14T06:04:40.385Z,17.52
2022-12-14T06:07:11.260Z,16.80
2022-12-14T06:09:39.940Z,17.10
2022-12-14T06:12:08.068Z,15.95
2022-12-14T06:14:37.642Z,16.20
2022-12-14T06:17:05.705Z,15.52
2022-12-14T06:19:33.902Z,17.25
2022-12-14T06:22:01.964Z,14.82
2022-12-14T06:24:30.087Z,17.30
2022-12-14T06:26:58.164Z,15.95
2022-12-14T06:29:26.348Z,15.73
2022-12-14T06:31:55.801Z,14.90
2022-12-14T06:34:28.507Z,15.95
2022-12-14T06:36:57.047Z,14.50
2022-12-14T06:39:25.337Z,16.02
2022-12-14T06:41:53.466Z,14.93
2022-12-14T06:44:21.655Z,13.93
2022-12-14T06:46:49.796Z,15.60
2022-12-14T06:49:19.507Z,15.88
2022-12-14T06:51:48.157Z,15.98
2022-12-14T06:54:17.634Z,14.77
2022-12-14T06:56:48.353Z,15.15
2022-12-14T06:59:17.644Z,13.35
2022-12-14T07:01:49.957Z,14.88
2022-12-14T07:04:21.533Z,15.95
2022-12-14T07:06:50.075Z,15.02
2022-12-14T07:09:18.150Z,15.20
2022-12-14T07:11:46.256Z,14.50
2022-12-14T07:14:17.676Z,14.23
2022-12-14T07:16:48.666Z,15.77
2022-12-14T07:19:17.996Z,14.82
2022-12-14T07:21:47.681Z,15.45
2022-12-14T07:24:16.003Z,14.13
2022-12-14T07:26:44.208Z,14.38
2022-12-14T07:29:14.711Z,13.82
2022-12-14T07:31:43.087Z,15.23
2022-12-14T07:34:13.992Z,14.57
2022-12-14T07:36:43.277Z,15.00
2022-12-14T07:39:15.031Z,14.73
2022-12-14T07:41:43.192Z,14.57
2022-12-14T07:44:12.234Z,13.77
2022-12-14T07:46:41.277Z,14.32
2022-12-14T07:49:10.087Z,14.32
2022-12-14T07:51:41.214Z,14.23
2022-12-14T07:54:09.876Z,13.88
2022-12-14T07:56:41.298Z,15.50
2022-12-14T07:59:14.575Z,12.77
2022-12-14T08:04:16.578Z,15.82
2022-12-14T08:06:47.325Z,13.25
2022-12-14T08:09:17.131Z,14.43
2022-12-14T08:11:46.893Z,15.13
2022-12-14T08:14:17.487Z,14.05
2022-12-14T08:16:46.213Z,15.88
2022-12-14T08:19:15.210Z,15.63
2022-12-14T08:21:43.412Z,15.05
2022-12-14T08:24:12.821Z,17.95
2022-12-14T08:26:41.518Z,17.13
2022-12-14T08:29:14.615Z,16.27
2022-12-14T08:31:43.175Z,16.05
2022-12-14T08:34:11.321Z,15.35
2022-12-14T08:36:39.558Z,18.60
2022-12-14T08:39:10.741Z,15.90
2022-12-14T08:41:39.108Z,17.08
2022-12-14T08:44:07.396Z,16.25
2022-12-14T08:46:39.275Z,17.85
2022-12-14T08:49:07.391Z,17.67
2022-12-14T08:51:38.580Z,16.70
2022-12-14T08:54:06.763Z,18.23
2022-12-14T08:56:34.952Z,18.65
2022-12-14T08:59:03.489Z,17.27
2022-12-14T09:01:34.601Z,17.38
2022-12-14T09:04:06.015Z,16.73
2022-12-14T09:06:37.891Z,16.40
2022-12-14T09:09:11.912Z,16.13
2022-12-14T09:11:43.585Z,14.48
2022-12-14T09:14:11.854Z,15.48
2022-12-14T09:16:40.411Z,16.83
2022-12-14T09:19:09.986Z,18.83
2022-12-14T09:21:38.681Z,17.90
2022-12-14T09:24:07.163Z,17.83
2022-12-14T09:26:35.391Z,14.73
2022-12-14T09:29:03.577Z,15.52
2022-12-14T09:31:31.714Z,15.57
2022-12-14T09:33:59.965Z,14.65
2022-12-14T09:36:29.627Z,15.25
2022-12-14T09:38:59.432Z,15.48
2022-12-14T09:41:39.479Z,16.42
2022-12-14T09:44:18.670Z,17.00
2022-12-14T09:46:57.290Z,15.43
2022-12-14T09:49:30.451Z,14.77
2022-12-14T09:52:02.412Z,17.20
2022-12-14T09:54:34.199Z,13.10
2022-12-14T09:57:05.948Z,13.95
2022-12-14T09:59:35.208Z,15.32
2022-12-14T10:02:30.945Z,17.13
2022-12-14T10:05:13.175Z,14.23
2022-12-14T10:07:52.234Z,20.42
2022-12-14T10:10:26.723Z,14.77
2022-12-14T10:13:07.703Z,16.25
2022-12-14T10:15:41.611Z,15.05
2022-12-14T10:18:58.437Z,15.13
2022-12-14T10:21:25.975Z,15.45
2022-12-14T10:24:00.108Z,15.70
2022-12-14T10:26:33.611Z,15.50
2022-12-14T10:29:08.599Z,15.90
2022-12-14T10:31:45.829Z,16.85
2022-12-14T10:34:19.646Z,14.10
2022-12-14T10:36:55.917Z,15.25
2022-12-14T10:39:35.199Z,18.00
2022-12-14T10:42:12.986Z,13.85
2022-12-14T10:44:50.185Z,14.48
2022-12-14T10:47:28.262Z,16.67
2022-12-14T10:50:03.194Z,16.25
2022-12-14T10:52:37.922Z,15.85
2022-12-14T10:55:15.246Z,13.77
2022-12-14T10:57:43.427Z,13.25
2022-12-14T11:00:22.483Z,15.13
2022-12-14T11:02:55.445Z,15.10
2022-12-14T11:05:36.060Z,18.08
2022-12-14T11:08:06.734Z,15.38
2022-12-14T11:10:39.557Z,14.55
2022-12-14T11:13:16.484Z,15.48
2022-12-14T11:15:46.585Z,13.60
2022-12-14T11:18:29.242Z,14.85
2022-12-14T11:21:00.078Z,13.60
2022-12-14T11:23:29.912Z,16.23
2022-12-14T11:26:02.348Z,14.63
2022-12-14T11:28:40.777Z,12.63
2022-12-14T11:33:45.836Z,13.18
2022-12-14T11:36:26.189Z,14.18
2022-12-14T11:38:57.514Z,12.23
2022-12-14T11:41:29.592Z,13.40
2022-12-14T11:44:04.016Z,13.43
2022-12-14T11:46:44.994Z,14.60
2022-12-14T11:49:26.516Z,12.77
2022-12-14T11:52:00.949Z,15.27
2022-12-14T11:54:32.023Z,14.60
2022-12-14T11:57:05.170Z,13.15
2022-12-14T12:02:30.203Z,13.02
2022-12-14T12:05:03.839Z,12.93
2022-12-14T12:07:35.146Z,12.60
2022-12-14T12:10:20.328Z,11.90
2022-12-14T12:12:55.251Z,12.88
2022-12-14T12:15:26.812Z,13.80
2022-12-14T12:18:00.083Z,15.77
2022-12-14T12:20:34.368Z,15.07
2022-12-14T12:23:11.102Z,13.25
2022-12-14T12:25:42.024Z,14.98
2022-12-14T12:28:19.647Z,15.15
2022-12-14T12:30:52.189Z,12.30
2022-12-14T12:33:28.619Z,13.70
2022-12-14T12:35:59.438Z,14.20
2022-12-14T12:38:43.015Z,16.13
2022-12-14T12:41:41.489Z,14.68
2022-12-14T12:44:25.584Z,13.18
2022-12-14T12:49:55.436Z,13.48
2022-12-14T12:52:28.846Z,14.52
2022-12-14T12:55:02.567Z,15.80
2022-12-14T12:57:36.485Z,13.65
2022-12-14T13:00:07.708Z,13.35
2022-12-14T13:02:39.999Z,14.15
2022-12-14T13:05:44.463Z,14.48
2022-12-14T13:08:07.578Z,12.48
2022-12-14T13:10:55.744Z,11.30
2022-12-14T13:13:33.791Z,14.80
2022-12-14T13:16:13.877Z,11.82
2022-12-14T13:19:01.925Z,13.95
2022-12-14T13:21:40.299Z,13.25
2022-12-14T13:24:17.605Z,14.63
2022-12-14T13:26:59.998Z,11.27
2022-12-14T13:29:45.081Z,15.85
2022-12-14T13:32:36.912Z,13.75
2022-12-14T13:35:21.793Z,11.43
2022-12-14T13:38:02.871Z,13.65
2022-12-14T13:41:01.725Z,13.52
2022-12-14T13:44:03.261Z,13.57
2022-12-14T13:46:32.156Z,12.10
2022-12-14T13:49:05.648Z,12.13
2022-12-14T13:51:39.606Z,12.18
2022-12-14T13:54:19.554Z,13.32
2022-12-14T13:56:47.876Z,14.43
2022-12-14T13:59:30.159Z,13.77
2022-12-14T14:02:01.018Z,14.77
2022-12-14T14:04:31.236Z,14.13
2022-12-14T14:07:31.744Z,13.20
2022-12-14T14:10:04.879Z,11.98
2022-12-14T14:12:44.952Z,12.10
2022-12-14T14:15:29.939Z,12.60
2022-12-14T14:18:08.579Z,12.23
2022-12-14T14:20:41.315Z,13.05
2022-12-14T14:23:30.056Z,12.95
2022-12-14T14:26:22.499Z,11.75
2022-12-14T14:29:19.331Z,12.77
2022-12-14T14:31:50.598Z,13.30
2022-12-14T14:34:24.418Z,13.35
2022-12-14T14:36:54.241Z,13.07
2022-12-14T14:42:26.313Z,11.75
2022-12-14T14:44:57.463Z,13.23
2022-12-14T14:47:29.259Z,12.55
2022-12-14T14:50:01.462Z,12.25
2022-12-14T14:53:11.102Z,12.68
2022-12-14T14:56:12.641Z,12.07
2022-12-14T14:58:42.163Z,12.63
2022-12-14T15:01:31.432Z,12.63
2022-12-14T15:04:04.914Z,13.30
2022-12-14T15:06:40.066Z,12.18
2022-12-14T15:09:18.755Z,13.73
2022-12-14T15:11:51.035Z,12.25
2022-12-14T15:14:32.236Z,12.82
2022-12-14T15:17:12.128Z,12.45
2022-12-14T15:19:40.816Z,13.88
2022-12-14T15:22:14.205Z,12.77
2022-12-14T15:24:45.709Z,12.85
2022-12-14T15:27:23.743Z,11.07
2022-12-14T15:29:53.018Z,11.70
2022-12-14T15:32:23.807Z,12.02
2022-12-14T15:34:57.907Z,12.27
2022-12-14T15:37:29.855Z,14.15
2022-12-14T15:40:07.682Z,11.38
2022-12-14T15:42:35.898Z,12.98
2022-12-14T15:45:14.375Z,12.80
2022-12-14T15:47:42.957Z,12.10
2022-12-14T15:50:29.716Z,12.57
2022-12-14T15:53:10.032Z,11.70
2022-12-14T15:55:42.895Z,11.32
2022-12-14T15:58:20.213Z,12.45
2022-12-14T16:00:52.857Z,12.98
2022-12-14T16:03:29.317Z,12.20
2022-12-14T16:05:59.066Z,13.57
2022-12-14T16:08:28.465Z,12.57
2022-12-14T16:11:01.995Z,13.20
2022-12-14T16:13:34.137Z,12.30
2022-12-14T16:16:08.860Z,12.77
2022-12-14T16:18:40.604Z,12.52
2022-12-14T16:21:10.741Z,12.45
2022-12-14T16:23:59.230Z,14.13
2022-12-14T16:26:36.283Z,13.60
2022-12-14T16:29:10.112Z,11.93
2022-12-14T16:31:38.556Z,10.60
2022-12-14T16:34:09.811Z,12.38
2022-12-14T16:36:38.310Z,13.52
2022-12-14T16:39:18.935Z,12.65
2022-12-14T16:41:58.256Z,11.75
2022-12-14T16:44:38.456Z,13.25
2022-12-14T16:47:28.780Z,12.45
2022-12-14T16:49:59.747Z,11.70
2022-12-14T16:52:30.583Z,12.48
2022-12-14T16:55:13.163Z,12.55
2022-12-14T16:57:53.120Z,12.25
2022-12-14T17:00:24.886Z,12.02
2022-12-14T17:02:58.734Z,11.32
2022-12-14T17:05:32.854Z,13.63
2022-12-14T17:08:01.140Z,11.32
2022-12-14T17:10:30.530Z,12.25
2022-12-14T17:13:01.030Z,12.07
2022-12-14T17:15:31.698Z,12.50
2022-12-14T17:18:02.387Z,11.48
2022-12-14T17:20:32.441Z,13.30
2022-12-14T17:23:02.326Z,12.15
2022-12-14T17:25:33.211Z,12.48
2022-12-14T17:28:02.966Z,12.30
2022-12-14T17:30:31.630Z,12.57
2022-12-14T17:32:59.900Z,11.02
2022-12-14T17:35:31.395Z,12.77
2022-12-14T17:38:00.140Z,12.50
2022-12-14T17:40:28.624Z,12.80
2022-12-14T17:42:58.849Z,11.02
2022-12-14T17:45:30.962Z,11.60
2022-12-14T17:47:59.646Z,14.05
2022-12-14T17:50:27.882Z,12.80
2022-12-14T17:52:56.127Z,12.25
2022-12-14T17:55:25.964Z,12.68
2022-12-14T17:57:55.452Z,12.48
2022-12-14T18:00:43.564Z,13.57
2022-12-14T18:03:14.431Z,13.07
2022-12-14T18:05:48.683Z,12.48
2022-12-14T18:08:17.655Z,12.23
2022-12-14T18:10:46.467Z,10.90
2022-12-14T18:13:15.546Z,11.07
2022-12-14T18:15:50.008Z,12.65
2022-12-14T18:18:20.734Z,12.65
2022-12-14T18:20:52.820Z,12.15
2022-12-14T18:23:23.252Z,10.73
2022-12-14T18:25:53.498Z,12.68
2022-12-14T18:28:22.438Z,12.82
2022-12-14T18:30:54.304Z,13.40
2022-12-14T18:33:26.166Z,12.63
2022-12-14T18:35:56.340Z,11.35
2022-12-14T18:38:24.981Z,12.27
2022-12-14T18:40:55.515Z,12.57
2022-12-14T18:43:25.848Z,16.80
2022-12-14T18:45:54.908Z,14.20
2022-12-14T18:48:25.946Z,14.93
2022-12-14T18:50:55.596Z,13.43
2022-12-14T18:53:25.514Z,13.75
2022-12-14T18:55:54.274Z,14.20
2022-12-14T18:58:24.210Z,15.68
2022-12-14T19:00:54.861Z,17.02
2022-12-14T19:03:25.755Z,14.60
2022-12-14T19:06:26.700Z,13.25
2022-12-14T19:08:51.725Z,13.10
2022-12-14T19:11:31.671Z,14.02
2022-12-14T19:14:00.813Z,11.45
2022-12-14T19:16:29.417Z,12.57
2022-12-14T19:18:59.817Z,14.18
2022-12-14T19:21:29.742Z,13.07
2022-12-14T19:23:59.587Z,12.02
2022-12-14T19:26:29.237Z,12.23
2022-12-14T19:28:58.591Z,19.27
2022-12-14T19:31:27.251Z,15.35
2022-12-14T19:33:55.838Z,19.48
2022-12-14T19:36:26.602Z,16.08
2022-12-14T19:38:54.848Z,16.30
2022-12-14T19:41:24.252Z,13.82
2022-12-14T19:44:10.285Z,30.55
2022-12-14T19:46:38.536Z,11.98
2022-12-14T19:49:07.852Z,16.73
2022-12-14T19:51:37.398Z,22.50
2022-12-14T19:54:06.779Z,14.85
2022-12-14T19:56:34.909Z,14.27
2022-12-14T19:59:04.981Z,16.58
2022-12-14T20:01:40.688Z,16.65
2022-12-14T20:04:12.319Z,12.98
2022-12-14T20:06:41.982Z,12.57
2022-12-14T20:09:10.465Z,13.82
2022-12-14T20:11:38.575Z,24.88
2022-12-14T20:14:06.704Z,15.65
2022-12-14T20:16:34.894Z,17.73
2022-12-14T20:19:03.278Z,13.57
2022-12-14T20:21:31.652Z,18.35
2022-12-14T20:24:01.865Z,13.98
2022-12-14T20:26:31.084Z,13.38
2022-12-14T20:29:01.483Z,14.60
2022-12-14T20:31:29.695Z,18.35
2022-12-14T20:34:00.353Z,17.50
2022-12-14T20:36:28.994Z,15.10
2022-12-14T20:39:01.334Z,12.90
2022-12-14T20:41:31.843Z,11.13
2022-12-14T20:44:02.172Z,14.00
2022-12-14T20:46:33.180Z,15.48
2022-12-14T20:49:02.891Z,16.08
2022-12-14T20:51:33.419Z,17.27
2022-12-14T20:54:02.145Z,14.73
2022-12-14T20:56:31.812Z,28.35
2022-12-14T20:59:00.111Z,17.40
2022-12-14T21:01:28.334Z,15.50
2022-12-14T21:03:57.722Z,14.63
2022-12-14T21:06:26.159Z,15.63
2022-12-14T21:09:05.380Z,13.00
2022-12-14T21:11:53.966Z,16.50
2022-12-14T21:14:23.581Z,18.05
2022-12-14T21:16:51.806Z,15.43
2022-12-14T21:19:20.675Z,13.57
2022-12-14T21:21:53.523Z,14.98
2022-12-14T21:27:17.251Z,12.02
2022-12-14T21:29:45.954Z,12.02
2022-12-14T21:32:16.715Z,14.35
2022-12-14T21:34:45.930Z,20.90
2022-12-14T21:37:14.735Z,14.73
2022-12-14T21:39:46.336Z,14.60
2022-12-14T21:42:21.949Z,13.00
2022-12-14T21:44:53.207Z,18.23
2022-12-14T21:47:23.842Z,15.15
2022-12-14T21:49:52.419Z,13.48
2022-12-14T21:52:22.758Z,18.45
2022-12-14T21:54:51.211Z,13.70
2022-12-14T21:57:41.285Z,15.02
2022-12-14T22:00:11.963Z,14.55
2022-12-14T22:02:41.648Z,14.50
2022-12-14T22:05:10.957Z,14.85
2022-12-14T22:07:41.911Z,13.15
2022-12-14T22:10:10.045Z,14.32
2022-12-14T22:12:40.474Z,13.13
2022-12-14T22:15:09.759Z,11.63
2022-12-14T22:17:37.898Z,15.13
2022-12-14T22:20:07.301Z,11.02
2022-12-14T22:22:35.383Z,11.52
2022-12-14T22:25:03.844Z,15.02
2022-12-14T22:27:31.911Z,11.00
2022-12-14T22:30:01.388Z,14.90
2022-12-14T22:32:30.108Z,12.68
2022-12-14T22:34:58.229Z,14.65
2022-12-14T22:37:26.296Z,13.38
2022-12-14T22:39:55.914Z,11.88
2022-12-14T22:42:24.951Z,12.35
2022-12-14T22:44:54.624Z,12.05
2022-12-14T22:47:24.061Z,12.98
2022-12-14T22:49:52.379Z,12.60
2022-12-14T22:52:24.715Z,16.00
2022-12-14T22:54:54.435Z,14.52
2022-12-14T22:57:23.543Z,15.30
2022-12-14T22:59:57.731Z,13.98
2022-12-14T23:02:27.406Z,14.82
2022-12-14T23:04:55.748Z,14.15
2022-12-14T23:07:23.964Z,12.65
2022-12-14T23:10:09.705Z,14.50
2022-12-14T23:12:55.828Z,13.45
2022-12-14T23:15:41.463Z,13.00
2022-12-14T23:18:28.617Z,12.88
2022-12-14T23:21:14.649Z,14.07
2022-12-14T23:24:01.585Z,11.65
2022-12-14T23:26:47.678Z,13.35
2022-12-14T23:29:34.151Z,13.60
2022-12-14T23:32:19.677Z,14.05
2022-12-14T23:35:09.689Z,13.75
2022-12-14T23:37:55.595Z,12.77
2022-12-14T23:40:41.124Z,12.70
2022-12-14T23:43:28.019Z,11.77
2022-12-14T23:46:14.503Z,12.07
2022-12-14T23:48:59.881Z,14.85
2022-12-14T23:51:46.993Z,15.02
2022-12-14T23:54:32.908Z,14.45
2022-12-14T23:57:18.368Z,13.43
